createdAt,value
2022-10-29T00:01:18.606Z,1.40
2022-10-29T00:04:22.843Z,1.40
2022-10-29T00:07:27.967Z,1.80
2022-10-29T00:10:32.888Z,1.50
2022-10-29T00:13:38.345Z,1.50
2022-10-29T00:16:42.867Z,1.60
2022-10-29T00:19:47.404Z,1.63
2022-10-29T00:22:55.576Z,1.70
2022-10-29T00:26:01.476Z,1.42
2022-10-29T00:29:06.166Z,1.38
2022-10-29T00:32:11.142Z,1.65
2022-10-29T00:35:15.650Z,1.58
2022-10-29T00:38:20.458Z,1.35
2022-10-29T00:41:28.468Z,1.70
2022-10-29T00:44:38.906Z,2.03
2022-10-29T00:47:43.947Z,2.65
2022-10-29T00:50:49.503Z,3.85
2022-10-29T00:54:05.186Z,4.50
2022-10-29T00:57:26.356Z,4.60
2022-10-29T01:00:30.910Z,5.25
2022-10-29T01:03:35.509Z,4.78
2022-10-29T01:06:42.348Z,5.53
2022-10-29T01:09:47.140Z,5.70
2022-10-29T01:13:39.518Z,5.63
2022-10-29T01:16:47.750Z,5.03
2022-10-29T01:20:32.123Z,5.72
2022-10-29T01:24:18.004Z,5.75
2022-10-29T01:28:02.359Z,5.53
2022-10-29T01:31:36.557Z,5.70
2022-10-29T01:34:57.214Z,4.75
2022-10-29T01:38:20.531Z,4.78
2022-10-29T01:41:55.034Z,3.70
2022-10-29T01:48:37.217Z,2.70
2022-10-29T01:51:44.216Z,3.00
2022-10-29T01:54:49.224Z,3.08
2022-10-29T01:57:54.201Z,4.35
2022-10-29T02:01:37.065Z,5.55
2022-10-29T02:05:33.941Z,5.63
2022-10-29T02:09:13.989Z,5.45
2022-10-29T02:12:33.456Z,5.68
2022-10-29T02:15:48.263Z,5.93
2022-10-29T02:18:53.228Z,4.28
2022-10-29T02:21:57.399Z,4.55
2022-10-29T02:25:02.887Z,4.78
2022-10-29T02:28:07.851Z,4.10
2022-10-29T02:31:12.713Z,4.78
2022-10-29T02:34:17.401Z,4.80
2022-10-29T02:37:21.758Z,5.88
2022-10-29T02:40:26.229Z,5.43
2022-10-29T02:43:30.509Z,5.82
2022-10-29T02:46:39.671Z,6.25
2022-10-29T02:49:44.405Z,5.20
2022-10-29T02:52:48.917Z,6.20
2022-10-29T02:55:53.499Z,6.95
2022-10-29T02:58:57.923Z,6.80
2022-10-29T03:02:02.769Z,8.13
2022-10-29T03:05:08.322Z,8.75
2022-10-29T03:08:12.844Z,8.98
2022-10-29T03:11:17.622Z,8.32
2022-10-29T03:14:22.006Z,8.05
2022-10-29T03:17:26.378Z,7.30
2022-10-29T03:20:37.162Z,6.90
2022-10-29T03:23:49.135Z,6.55
2022-10-29T03:26:55.497Z,6.15
2022-10-29T03:30:00.726Z,6.28
2022-10-29T03:33:05.136Z,6.00
2022-10-29T03:36:09.817Z,4.20
2022-10-29T03:39:14.448Z,4.82
2022-10-29T03:42:19.028Z,4.00
2022-10-29T03:45:23.612Z,4.63
2022-10-29T03:48:27.967Z,4.70
2022-10-29T03:51:32.109Z,4.47
2022-10-29T03:54:36.595Z,4.40
2022-10-29T03:57:41.212Z,4.70
2022-10-29T04:00:55.029Z,4.97
2022-10-29T04:07:04.540Z,4.22
2022-10-29T04:10:09.617Z,3.58
2022-10-29T04:13:15.678Z,3.58
2022-10-29T04:16:19.910Z,3.67
2022-10-29T04:19:24.317Z,3.17
2022-10-29T04:24:32.522Z,3.63
2022-10-29T04:29:24.917Z,2.97
2022-10-29T04:32:29.493Z,3.05
2022-10-29T04:35:33.652Z,2.75
2022-10-29T04:38:38.393Z,3.28
2022-10-29T04:41:42.692Z,3.17
2022-10-29T04:44:47.270Z,2.58
2022-10-29T04:48:00.938Z,3.33
2022-10-29T04:51:05.773Z,2.80
2022-10-29T04:54:10.390Z,2.95
2022-10-29T04:57:15.196Z,3.10
2022-10-29T05:00:20.768Z,2.80
2022-10-29T05:03:25.306Z,2.83
2022-10-29T05:06:29.580Z,3.13
2022-10-29T05:09:34.024Z,3.00
2022-10-29T05:12:38.775Z,3.20
2022-10-29T05:15:53.053Z,3.33
2022-10-29T05:18:58.098Z,3.45
2022-10-29T05:22:02.598Z,3.53
2022-10-29T05:25:07.512Z,3.20
2022-10-29T05:28:14.734Z,3.53
2022-10-29T05:31:19.559Z,3.47
2022-10-29T05:34:23.968Z,2.47
2022-10-29T05:37:28.354Z,2.95
2022-10-29T05:40:33.219Z,3.28
2022-10-29T05:43:37.745Z,3.10
2022-10-29T05:46:42.484Z,3.25
2022-10-29T05:49:46.867Z,3.53
2022-10-29T05:53:03.038Z,3.15
2022-10-29T05:56:07.846Z,3.10
2022-10-29T05:59:12.057Z,3.28
2022-10-29T06:02:16.706Z,2.78
2022-10-29T06:05:21.529Z,3.30
2022-10-29T06:08:26.156Z,3.50
2022-10-29T06:11:30.721Z,3.72
2022-10-29T06:14:35.077Z,3.67
2022-10-29T06:17:43.951Z,3.47
2022-10-29T06:20:48.595Z,3.88
2022-10-29T06:23:54.164Z,3.63
2022-10-29T06:26:58.709Z,3.35
2022-10-29T06:30:05.690Z,4.10
2022-10-29T06:33:10.073Z,3.60
2022-10-29T06:36:14.530Z,3.17
2022-10-29T06:39:19.134Z,3.28
2022-10-29T06:42:23.596Z,3.80
2022-10-29T06:45:29.674Z,3.70
2022-10-29T06:48:34.208Z,3.78
2022-10-29T06:51:38.975Z,3.58
2022-10-29T06:54:43.452Z,3.88
2022-10-29T06:57:48.192Z,3.60
2022-10-29T07:00:52.636Z,3.85
2022-10-29T07:03:57.381Z,3.95
2022-10-29T07:07:01.714Z,4.47
2022-10-29T07:10:08.002Z,3.67
2022-10-29T07:13:12.668Z,4.18
2022-10-29T07:16:17.468Z,3.85
2022-10-29T07:19:21.829Z,3.97
2022-10-29T07:22:28.010Z,4.18
2022-10-29T07:25:36.719Z,3.97
2022-10-29T07:28:41.531Z,4.18
2022-10-29T07:31:45.906Z,4.85
2022-10-29T07:34:50.368Z,4.40
2022-10-29T07:38:10.028Z,4.15
2022-10-29T07:41:15.915Z,4.97
2022-10-29T07:44:20.570Z,4.50
2022-10-29T07:47:24.885Z,4.70
2022-10-29T07:50:30.448Z,4.13
2022-10-29T07:53:34.669Z,4.90
2022-10-29T07:56:41.284Z,4.10
2022-10-29T07:59:50.168Z,4.18
2022-10-29T08:02:55.919Z,3.90
2022-10-29T08:06:00.686Z,4.10
2022-10-29T08:09:04.999Z,4.07
2022-10-29T08:12:11.375Z,4.10
2022-10-29T08:15:16.188Z,3.88
2022-10-29T08:18:21.000Z,4.10
2022-10-29T08:21:25.904Z,4.05
2022-10-29T08:24:30.407Z,3.50
2022-10-29T08:27:34.850Z,3.85
2022-10-29T08:30:40.520Z,3.60
2022-10-29T08:33:45.101Z,4.03
2022-10-29T08:36:49.616Z,3.97
2022-10-29T08:39:54.129Z,3.70
2022-10-29T08:43:10.388Z,3.58
2022-10-29T08:46:32.787Z,3.53
2022-10-29T08:49:47.714Z,3.28
2022-10-29T08:53:21.860Z,3.17
2022-10-29T08:56:27.971Z,3.08
2022-10-29T08:59:40.454Z,3.92
2022-10-29T09:02:45.171Z,3.37
2022-10-29T09:06:17.344Z,3.38
2022-10-29T09:09:49.783Z,3.55
2022-10-29T09:13:15.212Z,3.40
2022-10-29T09:16:47.141Z,3.53
2022-10-29T09:20:16.504Z,3.35
2022-10-29T09:23:41.745Z,4.47
2022-10-29T09:26:59.794Z,3.63
2022-10-29T09:30:18.626Z,3.38
2022-10-29T09:33:24.905Z,3.00
2022-10-29T09:36:31.063Z,4.25
2022-10-29T09:39:41.118Z,3.47
2022-10-29T09:42:54.383Z,3.75
2022-10-29T09:46:41.477Z,4.18
2022-10-29T09:50:05.264Z,3.53
2022-10-29T09:53:13.341Z,3.55
2022-10-29T09:56:18.094Z,3.45
2022-10-29T09:59:38.350Z,3.25
2022-10-29T10:03:00.039Z,3.42
2022-10-29T10:06:08.752Z,3.72
2022-10-29T10:09:13.032Z,3.55
2022-10-29T10:12:19.720Z,4.13
2022-10-29T10:15:34.774Z,3.95
2022-10-29T10:22:04.732Z,4.57
2022-10-29T10:25:33.627Z,3.28
2022-10-29T10:28:38.061Z,4.97
2022-10-29T10:31:47.771Z,4.78
2022-10-29T10:34:52.269Z,4.40
2022-10-29T10:37:59.760Z,4.43
2022-10-29T10:41:08.609Z,4.57
2022-10-29T10:44:13.636Z,3.70
2022-10-29T10:47:21.756Z,3.80
2022-10-29T10:50:29.212Z,3.40
2022-10-29T10:53:34.949Z,4.43
2022-10-29T10:57:03.699Z,3.75
2022-10-29T11:00:20.665Z,2.58
2022-10-29T11:03:43.135Z,3.28
2022-10-29T11:06:53.545Z,3.97
2022-10-29T11:09:59.510Z,4.40
2022-10-29T11:13:12.558Z,3.72
2022-10-29T11:16:28.948Z,3.25
2022-10-29T11:19:46.493Z,3.20
2022-10-29T11:23:13.668Z,3.33
2022-10-29T11:26:29.234Z,3.05
2022-10-29T11:29:53.930Z,2.90
2022-10-29T11:33:40.444Z,3.03
2022-10-29T11:37:03.705Z,2.80
2022-10-29T11:40:23.723Z,2.40
2022-10-29T11:43:28.343Z,2.47
2022-10-29T11:46:51.354Z,3.05
2022-10-29T11:50:44.593Z,3.33
2022-10-29T11:54:20.511Z,3.72
2022-10-29T11:57:36.680Z,4.68
2022-10-29T12:00:57.410Z,4.30
2022-10-29T12:04:33.323Z,3.50
2022-10-29T12:07:45.068Z,4.05
2022-10-29T12:11:36.724Z,4.47
2022-10-29T12:15:40.258Z,3.60
2022-10-29T12:18:55.105Z,3.42
2022-10-29T12:22:24.416Z,3.70
2022-10-29T12:26:03.368Z,3.80
2022-10-29T12:29:32.457Z,3.35
2022-10-29T12:33:12.321Z,3.05
2022-10-29T12:36:31.849Z,3.63
2022-10-29T12:39:44.705Z,2.60
2022-10-29T12:42:51.345Z,2.72
2022-10-29T12:46:24.576Z,3.00
2022-10-29T12:49:47.567Z,3.25
2022-10-29T12:53:26.549Z,2.67
2022-10-29T12:56:32.165Z,2.67
2022-10-29T12:59:37.371Z,2.47
2022-10-29T13:02:45.076Z,2.80
2022-10-29T13:05:49.491Z,3.00
2022-10-29T13:08:57.312Z,2.67
2022-10-29T13:12:10.009Z,2.60
2022-10-29T13:15:15.537Z,2.63
2022-10-29T13:18:30.119Z,2.30
2022-10-29T13:22:02.111Z,2.35
2022-10-29T13:25:37.281Z,2.45
2022-10-29T13:28:47.224Z,2.30
2022-10-29T13:31:53.146Z,2.40
2022-10-29T13:35:01.681Z,2.65
2022-10-29T13:38:12.777Z,2.47
2022-10-29T13:41:29.260Z,2.35
2022-10-29T13:44:37.906Z,2.50
2022-10-29T13:47:42.801Z,3.03
2022-10-29T13:50:51.326Z,2.72
2022-10-29T13:54:04.559Z,2.30
2022-10-29T13:57:23.665Z,2.00
2022-10-29T14:00:41.385Z,2.40
2022-10-29T14:04:04.198Z,2.72
2022-10-29T14:07:37.668Z,2.63
2022-10-29T14:10:43.779Z,2.50
2022-10-29T14:13:51.935Z,2.20
2022-10-29T14:17:17.208Z,2.30
2022-10-29T14:20:28.812Z,2.72
2022-10-29T14:23:33.684Z,2.30
2022-10-29T14:26:42.552Z,2.22
2022-10-29T14:29:50.507Z,2.58
2022-10-29T14:32:58.000Z,2.33
2022-10-29T14:36:40.974Z,2.28
2022-10-29T14:39:58.980Z,2.47
2022-10-29T14:43:03.914Z,2.25
2022-10-29T14:46:26.429Z,2.25
2022-10-29T14:49:34.027Z,2.10
2022-10-29T14:52:43.791Z,2.10
2022-10-29T14:55:49.313Z,2.08
2022-10-29T14:58:54.434Z,2.15
2022-10-29T15:02:17.389Z,2.40
2022-10-29T15:05:32.167Z,2.50
2022-10-29T15:08:41.448Z,2.65
2022-10-29T15:12:01.250Z,2.55
2022-10-29T15:15:22.661Z,1.90
2022-10-29T15:18:27.464Z,2.28
2022-10-29T15:21:33.560Z,2.10
2022-10-29T15:24:38.373Z,2.38
2022-10-29T15:27:43.030Z,2.47
2022-10-29T15:30:48.015Z,2.35
2022-10-29T15:33:54.549Z,2.75
2022-10-29T15:37:26.155Z,2.20
2022-10-29T15:40:30.827Z,3.05
2022-10-29T15:43:56.604Z,2.85
2022-10-29T15:47:18.202Z,3.35
2022-10-29T15:50:41.797Z,3.13
2022-10-29T15:53:46.405Z,2.95
2022-10-29T15:56:51.973Z,2.58
2022-10-29T15:59:57.572Z,2.60
2022-10-29T16:03:21.100Z,2.75
2022-10-29T16:06:25.713Z,3.33
2022-10-29T16:09:30.300Z,2.30
2022-10-29T16:12:35.015Z,3.28
2022-10-29T16:15:43.329Z,3.10
2022-10-29T16:18:49.506Z,3.65
2022-10-29T16:21:59.662Z,3.95
2022-10-29T16:25:06.094Z,3.50
2022-10-29T16:28:10.640Z,3.53
2022-10-29T16:31:24.535Z,3.70
2022-10-29T16:34:29.452Z,3.47
2022-10-29T16:37:34.186Z,4.15
2022-10-29T16:40:39.122Z,3.85
2022-10-29T16:43:44.641Z,4.43
2022-10-29T16:46:49.193Z,4.32
2022-10-29T16:49:54.399Z,4.40
2022-10-29T16:53:11.104Z,3.97
2022-10-29T16:56:15.975Z,3.60
2022-10-29T16:59:20.663Z,3.70
2022-10-29T17:02:49.923Z,3.47
2022-10-29T17:05:54.585Z,3.72
2022-10-29T17:08:59.821Z,3.47
2022-10-29T17:12:05.543Z,4.05
2022-10-29T17:15:10.493Z,3.70
2022-10-29T17:18:14.864Z,3.42
2022-10-29T17:21:20.258Z,2.58
2022-10-29T17:24:27.931Z,3.92
2022-10-29T17:27:34.881Z,3.22
2022-10-29T17:30:40.155Z,3.08
2022-10-29T17:33:44.852Z,3.45
2022-10-29T17:36:52.170Z,3.78
2022-10-29T17:40:00.103Z,3.78
2022-10-29T17:43:06.477Z,3.55
2022-10-29T17:46:11.805Z,3.28
2022-10-29T17:49:16.697Z,3.05
2022-10-29T17:52:22.335Z,3.30
2022-10-29T17:55:26.572Z,3.20
2022-10-29T17:58:31.124Z,2.45
2022-10-29T18:01:35.728Z,3.03
2022-10-29T18:04:40.663Z,2.67
2022-10-29T18:07:45.159Z,3.05
2022-10-29T18:10:51.101Z,3.17
2022-10-29T18:13:57.352Z,3.00
2022-10-29T18:17:03.085Z,2.83
2022-10-29T18:20:08.422Z,2.67
2022-10-29T18:23:13.147Z,3.42
2022-10-29T18:26:32.854Z,3.42
2022-10-29T18:29:37.803Z,3.08
2022-10-29T18:32:42.417Z,3.10
2022-10-29T18:35:46.998Z,2.53
2022-10-29T18:38:53.713Z,3.15
2022-10-29T18:41:59.473Z,3.05
2022-10-29T18:45:05.983Z,2.25
2022-10-29T18:48:11.066Z,3.08
2022-10-29T18:51:21.599Z,2.95
2022-10-29T18:54:30.313Z,2.60
2022-10-29T18:57:38.303Z,2.85
2022-10-29T19:00:44.483Z,2.65
2022-10-29T19:03:52.749Z,3.00
2022-10-29T19:07:00.108Z,2.47
2022-10-29T19:10:04.856Z,2.97
2022-10-29T19:13:10.016Z,2.47
2022-10-29T19:16:15.574Z,2.83
2022-10-29T19:19:22.956Z,2.72
2022-10-29T19:22:30.906Z,3.05
2022-10-29T19:25:40.971Z,3.03
2022-10-29T19:28:46.895Z,3.28
2022-10-29T19:31:51.546Z,2.70
2022-10-29T19:34:55.900Z,2.92
2022-10-29T19:38:00.903Z,2.72
2022-10-29T19:41:05.423Z,2.80
2022-10-29T19:44:10.122Z,2.72
2022-10-29T19:47:16.679Z,2.63
2022-10-29T19:53:29.070Z,3.22
2022-10-29T19:56:33.922Z,3.10
2022-10-29T19:59:38.676Z,2.50
2022-10-29T20:02:43.569Z,2.92
2022-10-29T20:05:49.395Z,2.80
2022-10-29T20:08:54.202Z,3.28
2022-10-29T20:11:59.100Z,2.83
2022-10-29T20:15:04.051Z,2.67
2022-10-29T20:18:08.614Z,3.22
2022-10-29T20:21:14.227Z,2.47
2022-10-29T20:24:20.487Z,2.97
2022-10-29T20:27:25.227Z,2.70
2022-10-29T20:30:30.352Z,2.67
2022-10-29T20:33:34.741Z,3.20
2022-10-29T20:36:39.560Z,2.78
2022-10-29T20:39:44.086Z,2.67
2022-10-29T20:42:52.080Z,3.13
2022-10-29T20:46:01.855Z,3.03
2022-10-29T20:49:06.772Z,3.20
2022-10-29T20:52:11.534Z,3.20
2022-10-29T20:55:16.422Z,3.65
2022-10-29T20:58:22.021Z,3.80
2022-10-29T21:01:26.986Z,3.92
2022-10-29T21:04:31.453Z,4.05
2022-10-29T21:07:35.816Z,4.78
2022-10-29T21:10:40.164Z,3.67
2022-10-29T21:13:45.530Z,5.15
2022-10-29T21:16:50.199Z,4.45
2022-10-29T21:19:54.772Z,4.90
2022-10-29T21:22:59.721Z,5.05
2022-10-29T21:26:14.763Z,5.30
2022-10-29T21:29:19.394Z,5.43
2022-10-29T21:32:23.859Z,5.85
2022-10-29T21:35:28.317Z,4.80
2022-10-29T21:38:33.499Z,5.30
2022-10-29T21:41:37.935Z,6.10
2022-10-29T21:44:42.375Z,5.65
2022-10-29T21:47:49.654Z,5.35
2022-10-29T21:51:12.836Z,4.53
2022-10-29T21:54:17.285Z,4.63
2022-10-29T21:57:21.595Z,4.15
2022-10-29T22:00:26.911Z,4.20
2022-10-29T22:03:33.793Z,4.50
2022-10-29T22:06:38.070Z,4.72
2022-10-29T22:09:42.580Z,4.68
2022-10-29T22:12:47.001Z,4.35
2022-10-29T22:15:51.683Z,4.20
2022-10-29T22:18:55.959Z,4.72
2022-10-29T22:22:00.293Z,5.00
2022-10-29T22:25:05.780Z,4.97
2022-10-29T22:28:10.496Z,4.68
2022-10-29T22:31:16.647Z,4.80
2022-10-29T22:34:21.266Z,4.28
2022-10-29T22:37:27.070Z,4.47
2022-10-29T22:40:31.343Z,5.07
2022-10-29T22:43:36.484Z,4.75
2022-10-29T22:46:41.093Z,4.35
2022-10-29T22:49:45.475Z,5.25
2022-10-29T22:52:49.889Z,4.80
2022-10-29T22:55:54.863Z,5.30
2022-10-29T22:59:00.022Z,6.03
2022-10-29T23:02:04.517Z,6.07
2022-10-29T23:05:09.447Z,5.85
2022-10-29T23:08:13.995Z,6.22
2022-10-29T23:11:24.871Z,5.80
2022-10-29T23:14:29.370Z,5.75
2022-10-29T23:17:33.897Z,5.90
2022-10-29T23:20:38.432Z,5.72
2022-10-29T23:23:42.878Z,5.53
2022-10-29T23:26:47.637Z,4.80
2022-10-29T23:29:51.953Z,6.00
2022-10-29T23:32:56.649Z,6.05
2022-10-29T23:36:08.976Z,5.47
2022-10-29T23:39:13.956Z,5.15
2022-10-29T23:42:18.613Z,4.93
2022-10-29T23:45:22.873Z,6.43
2022-10-29T23:48:27.353Z,6.13
2022-10-29T23:51:31.956Z,7.63
2022-10-29T23:54:36.402Z,7.97
2022-10-29T23:57:40.828Z,8.27
